Time;durP1;ratioP1;P1;durP2;ratioP2;P2;SDS_P1;SDS_P2;PMS_P1;PMS_P2;Temp;Humidity;BMP_temperature;BMP_pressure;BME280_temperature;BME280_humidity;BME280_pressure;Samples;Min_cycle;Max_cycle;Signal;HPM_P1;HPM_P2
2021/06/09 00:01:58;;;;;;;58.03;2.80;;;16.00;92.60;;;;;;5011708;28;20492;-67
2021/06/09 00:04:25;;;;;;;58.07;2.77;;;16.00;93.10;;;;;;5012432;28;20513;-67
2021/06/09 00:06:52;;;;;;;57.90;3.03;;;16.00;92.80;;;;;;5012998;28;20581;-67
2021/06/09 00:09:18;;;;;;;62.87;4.07;;;16.00;91.70;;;;;;5012218;28;20563;-67
2021/06/09 00:11:44;;;;;;;60.67;5.20;;;15.90;91.00;;;;;;5011981;28;20485;-67
2021/06/09 00:14:13;;;;;;;59.90;4.40;;;15.80;91.60;;;;;;5012528;28;20539;-67
2021/06/09 00:16:40;;;;;;;58.43;3.50;;;15.80;91.80;;;;;;5012199;28;20952;-67
2021/06/09 00:19:07;;;;;;;58.77;4.10;;;15.80;92.80;;;;;;5011236;28;20996;-67
2021/06/09 00:21:36;;;;;;;58.70;3.70;;;15.70;93.70;;;;;;5011712;28;20490;-67
2021/06/09 00:24:03;;;;;;;59.27;3.47;;;15.80;95.20;;;;;;5011480;28;20527;-67
2021/06/09 00:26:30;;;;;;;58.37;3.50;;;15.80;95.60;;;;;;5011351;28;20455;-67
2021/06/09 00:28:56;;;;;;;57.67;2.90;;;15.80;96.40;;;;;;5008787;28;20556;-67
2021/06/09 00:31:23;;;;;;;58.03;3.03;;;15.80;97.10;;;;;;5011579;28;20539;-67
2021/06/09 00:33:49;;;;;;;57.87;2.90;;;15.90;97.70;;;;;;5011904;28;20456;-67
2021/06/09 00:36:16;;;;;;;57.83;2.90;;;15.80;98.60;;;;;;5011865;28;20454;-67
2021/06/09 00:38:44;;;;;;;58.30;3.20;;;15.90;99.40;;;;;;5012150;28;20475;-67
2021/06/09 00:41:11;;;;;;;59.80;4.77;;;15.90;99.90;;;;;;5012325;28;20539;-67
2021/06/09 00:43:37;;;;;;;58.30;3.37;;;16.00;99.90;;;;;;5011923;28;20519;-67
2021/06/09 00:46:06;;;;;;;60.50;5.27;;;16.00;99.90;;;;;;5011633;28;20452;-67
2021/06/09 00:48:34;;;;;;;58.67;3.53;;;16.10;99.90;;;;;;5011452;28;20500;-67
2021/06/09 00:51:03;;;;;;;58.50;3.07;;;16.10;99.90;;;;;;5011730;28;20484;-67
2021/06/09 00:53:32;;;;;;;58.37;3.40;;;16.10;99.90;;;;;;5011601;28;20525;-67
2021/06/09 00:56:02;;;;;;;58.77;3.23;;;16.10;99.90;;;;;;5011866;28;20482;-67
2021/06/09 00:58:29;;;;;;;59.27;4.00;;;16.10;99.90;;;;;;5010482;28;20477;-67
2021/06/09 01:00:56;;;;;;;58.37;3.20;;;16.10;99.90;;;;;;5010845;28;20456;-67
2021/06/09 01:03:23;;;;;;;60.80;3.23;;;16.20;99.90;;;;;;4994487;28;20490;-67
2021/06/09 01:05:49;;;;;;;57.80;2.90;;;16.10;99.90;;;;;;4992500;28;20532;-67
2021/06/09 01:08:17;;;;;;;57.97;3.47;;;16.20;99.90;;;;;;4992062;28;20528;-67
2021/06/09 01:10:44;;;;;;;58.27;3.03;;;16.10;99.90;;;;;;4991404;28;20540;-67
2021/06/09 01:13:12;;;;;;;59.57;4.10;;;16.20;99.90;;;;;;4992844;28;20483;-67
2021/06/09 01:15:39;;;;;;;58.47;3.10;;;16.30;99.90;;;;;;4996424;28;20540;-67
2021/06/09 01:18:06;;;;;;;58.53;3.70;;;16.20;99.90;;;;;;4995726;28;20484;-67
2021/06/09 01:20:33;;;;;;;58.77;3.20;;;16.30;99.90;;;;;;4996020;28;20457;-67
2021/06/09 01:23:01;;;;;;;59.07;3.20;;;16.30;99.90;;;;;;4995804;28;20461;-67
2021/06/09 01:25:29;;;;;;;58.40;3.33;;;16.20;99.90;;;;;;4996297;28;20462;-67
2021/06/09 01:27:55;;;;;;;58.67;3.63;;;16.20;99.90;;;;;;4995502;28;20481;-67
2021/06/09 01:30:22;;;;;;;59.57;4.13;;;16.20;99.90;;;;;;4995761;28;20974;-67
2021/06/09 01:32:51;;;;;;;57.97;3.10;;;16.20;99.90;;;;;;5014870;28;20457;-67
2021/06/09 01:35:18;;;;;;;58.67;3.53;;;16.20;99.90;;;;;;5015189;28;20485;-67
2021/06/09 01:37:44;;;;;;;58.20;3.43;;;16.20;99.90;;;;;;5014898;28;20472;-67
2021/06/09 01:40:14;;;;;;;58.93;3.47;;;16.20;99.90;;;;;;5015207;28;20448;-67
2021/06/09 01:42:42;;;;;;;57.80;3.10;;;16.20;99.90;;;;;;5015625;28;20867;-67
2021/06/09 01:45:12;;;;;;;57.80;2.80;;;16.20;99.90;;;;;;5015079;28;20494;-67
2021/06/09 01:47:39;;;;;;;57.50;2.97;;;16.30;99.90;;;;;;5014878;28;20597;-67
2021/06/09 01:50:09;;;;;;;59.70;3.93;;;16.20;99.90;;;;;;5014866;28;20460;-67
2021/06/09 01:52:36;;;;;;;58.07;3.20;;;16.20;99.90;;;;;;5015010;28;20537;-67
2021/06/09 01:55:04;;;;;;;58.50;3.10;;;16.10;99.90;;;;;;5015395;28;20460;-67
2021/06/09 01:57:32;;;;;;;58.03;3.13;;;16.10;99.90;;;;;;5014834;28;20805;-67
2021/06/09 01:59:59;;;;;;;59.03;3.43;;;16.10;99.90;;;;;;5015052;28;20946;-67
2021/06/09 02:02:26;;;;;;;59.00;3.23;;;16.10;99.90;;;;;;5005700;28;20544;-67
2021/06/09 02:04:52;;;;;;;57.80;2.80;;;16.10;99.90;;;;;;5005975;28;20492;-67
2021/06/09 02:07:19;;;;;;;58.17;3.33;;;16.00;99.90;;;;;;5014015;28;20548;-67
2021/06/09 02:09:46;;;;;;;59.50;3.37;;;16.00;99.90;;;;;;5013887;28;20728;-67
2021/06/09 02:12:13;;;;;;;58.20;3.73;;;16.00;99.90;;;;;;5013302;28;20541;-67
2021/06/09 02:14:43;;;;;;;58.20;3.47;;;16.00;99.90;;;;;;5014466;28;20485;-67
2021/06/09 02:17:10;;;;;;;59.10;4.63;;;16.00;99.90;;;;;;5014100;28;20462;-67
2021/06/09 02:19:37;;;;;;;58.67;4.00;;;16.00;99.90;;;;;;5014397;28;20912;-67
2021/06/09 02:22:05;;;;;;;58.40;3.67;;;16.00;99.90;;;;;;5014482;28;20531;-67
2021/06/09 02:24:32;;;;;;;58.47;3.07;;;15.90;99.90;;;;;;5013825;28;20931;-67
2021/06/09 02:26:59;;;;;;;58.00;3.17;;;16.00;99.90;;;;;;5014045;28;20541;-67
2021/06/09 02:29:25;;;;;;;59.33;3.50;;;16.00;99.90;;;;;;5013395;28;20551;-67
2021/06/09 02:31:53;;;;;;;58.77;3.83;;;16.00;99.90;;;;;;5013829;28;20447;-67
2021/06/09 02:34:22;;;;;;;59.60;4.70;;;16.00;99.90;;;;;;5012359;28;20595;-67
2021/06/09 02:36:50;;;;;;;58.20;3.70;;;16.00;99.90;;;;;;5013089;28;20467;-67
2021/06/09 02:39:17;;;;;;;59.07;4.13;;;16.00;99.90;;;;;;5013857;28;20523;-67
2021/06/09 02:41:44;;;;;;;58.10;3.00;;;16.00;99.90;;;;;;5013527;28;20443;-67
2021/06/09 02:44:11;;;;;;;59.27;3.17;;;16.00;99.90;;;;;;5014088;28;20574;-67
2021/06/09 02:46:40;;;;;;;58.00;2.73;;;15.90;99.90;;;;;;5013885;28;21017;-67
2021/06/09 02:49:11;;;;;;;58.07;3.27;;;15.90;99.90;;;;;;5013786;28;20480;-67
2021/06/09 02:51:42;;;;;;;59.67;6.00;;;16.00;99.90;;;;;;5013334;28;20532;-67
2021/06/09 02:54:16;;;;;;;58.20;2.83;;;16.00;99.90;;;;;;5013915;28;20569;-67
2021/06/09 02:56:49;;;;;;;60.43;3.60;;;15.90;99.90;;;;;;5013621;28;20459;-67
2021/06/09 02:59:30;;;;;;;57.70;2.70;;;15.90;99.90;;;;;;5013410;28;20586;-67
2021/06/09 03:02:04;;;;;;;59.10;3.57;;;15.90;99.90;;;;;;5013671;28;20531;-67
2021/06/09 03:04:41;;;;;;;58.00;3.00;;;15.90;99.90;;;;;;5012385;28;20489;-67
2021/06/09 03:07:14;;;;;;;58.47;3.77;;;15.90;99.90;;;;;;5012678;28;20539;-67
2021/06/09 03:09:49;;;;;;;57.80;2.70;;;15.80;99.90;;;;;;5013056;28;20952;-67
2021/06/09 03:12:26;;;;;;;58.07;3.70;;;15.80;99.90;;;;;;5013824;28;20539;-67
2021/06/09 03:15:10;;;;;;;57.87;3.30;;;15.80;99.90;;;;;;5013562;28;20955;-67
2021/06/09 03:17:43;;;;;;;58.17;3.60;;;15.80;99.90;;;;;;5013444;28;20525;-67
2021/06/09 03:20:20;;;;;;;61.40;5.47;;;15.80;99.90;;;;;;5012812;28;20451;-67
2021/06/09 03:22:57;;;;;;;59.27;3.57;;;15.70;99.90;;;;;;5013579;28;20453;-67
2021/06/09 03:25:31;;;;;;;59.23;3.30;;;15.70;99.90;;;;;;5013501;28;20835;-67
2021/06/09 03:28:06;;;;;;;58.10;3.47;;;15.70;99.90;;;;;;5012703;28;20851;-67
2021/06/09 03:30:35;;;;;;;58.90;4.40;;;15.70;99.90;;;;;;5013216;28;20494;-67
2021/06/09 03:33:05;;;;;;;58.50;3.03;;;15.70;99.90;;;;;;5012412;28;20513;-67
2021/06/09 03:35:38;;;;;;;60.30;4.53;;;15.70;99.90;;;;;;5006695;28;20452;-67
2021/06/09 03:38:09;;;;;;;59.10;3.60;;;15.70;99.90;;;;;;5001712;28;20519;-67
2021/06/09 03:40:38;;;;;;;57.97;3.50;;;15.70;99.90;;;;;;5011809;28;20543;-67
2021/06/09 03:43:08;;;;;;;58.10;3.00;;;15.70;99.90;;;;;;5012353;28;20521;-67
2021/06/09 03:45:41;;;;;;;58.13;3.50;;;15.70;99.90;;;;;;5012784;28;20574;-67
2021/06/09 03:48:10;;;;;;;59.13;3.57;;;15.70;99.90;;;;;;5011205;28;20843;-67
2021/06/09 03:50:41;;;;;;;58.50;4.00;;;15.70;99.90;;;;;;5011636;28;20538;-67
2021/06/09 03:53:09;;;;;;;58.97;2.80;;;15.70;99.90;;;;;;5012044;28;20538;-67
2021/06/09 03:55:37;;;;;;;58.83;3.60;;;15.70;99.90;;;;;;5012220;28;20447;-67
2021/06/09 03:58:08;;;;;;;60.00;4.10;;;15.70;99.90;;;;;;5011605;28;20569;-67
2021/06/09 04:00:35;;;;;;;58.77;3.50;;;15.70;99.90;;;;;;5012090;28;20468;-67
2021/06/09 04:03:03;;;;;;;59.90;3.80;;;15.70;99.90;;;;;;5011959;28;20918;-67
2021/06/09 04:05:31;;;;;;;59.73;4.30;;;15.70;99.90;;;;;;5012551;28;20603;-67
2021/06/09 04:07:59;;;;;;;57.53;2.63;;;15.70;99.90;;;;;;5011814;28;20476;-67
2021/06/09 04:10:26;;;;;;;58.60;3.87;;;15.70;99.90;;;;;;5012567;28;20442;-67
2021/06/09 04:12:53;;;;;;;57.47;2.83;;;15.70;99.90;;;;;;5011029;28;20488;-67
2021/06/09 04:15:21;;;;;;;58.10;3.37;;;15.70;99.90;;;;;;5012549;28;20866;-67
2021/06/09 04:17:49;;;;;;;60.20;4.50;;;15.70;99.90;;;;;;5012020;28;20554;-67
2021/06/09 04:20:24;;;;;;;58.10;3.20;;;15.80;99.90;;;;;;5012016;28;20482;-67
2021/06/09 04:22:51;;;;;;;58.50;3.07;;;15.80;99.90;;;;;;5011655;28;20580;-67
2021/06/09 04:25:20;;;;;;;58.87;4.13;;;15.90;99.90;;;;;;5012355;28;20491;-67
2021/06/09 04:27:47;;;;;;;58.20;2.90;;;15.90;99.90;;;;;;5011099;28;21076;-67
2021/06/09 04:30:15;;;;;;;59.23;3.70;;;15.90;99.90;;;;;;5012334;28;20899;-67
2021/06/09 04:32:53;;;;;;;59.13;4.57;;;15.90;99.90;;;;;;5011416;28;20537;-68
2021/06/09 04:35:21;;;;;;;57.57;2.70;;;16.00;99.90;;;;;;5011230;28;20455;-67
2021/06/09 04:37:47;;;;;;;58.63;3.43;;;16.00;99.90;;;;;;5011632;28;20500;-67
2021/06/09 04:40:20;;;;;;;58.40;3.83;;;16.00;99.90;;;;;;5011009;28;20447;-67
2021/06/09 04:42:49;;;;;;;59.57;5.67;;;16.00;99.90;;;;;;5006043;28;20548;-67
2021/06/09 04:45:16;;;;;;;57.83;3.33;;;16.10;99.90;;;;;;4999276;28;20526;-67
2021/06/09 04:47:42;;;;;;;58.00;3.90;;;16.10;99.90;;;;;;5011010;28;20494;-67
2021/06/09 04:50:10;;;;;;;59.00;3.40;;;16.10;99.90;;;;;;5011352;28;20448;-67
2021/06/09 04:52:36;;;;;;;58.80;4.43;;;16.10;99.90;;;;;;5011062;28;20539;-67
2021/06/09 04:55:04;;;;;;;59.17;4.10;;;16.20;99.90;;;;;;5011841;28;20443;-67
2021/06/09 04:57:32;;;;;;;60.50;3.90;;;16.20;99.90;;;;;;5010823;28;20477;-67
2021/06/09 04:59:58;;;;;;;57.80;3.13;;;16.30;99.90;;;;;;5011824;28;20544;-67
2021/06/09 05:02:24;;;;;;;59.90;4.60;;;16.30;99.90;;;;;;5011380;28;20534;-67
2021/06/09 05:04:51;;;;;;;57.97;3.27;;;16.30;99.90;;;;;;5011138;28;20573;-67
2021/06/09 05:07:17;;;;;;;59.13;3.87;;;16.30;99.90;;;;;;5011070;28;20543;-67
2021/06/09 05:09:44;;;;;;;61.50;3.77;;;16.30;99.90;;;;;;5010369;28;20451;-67
2021/06/09 05:12:17;;;;;;;59.40;3.30;;;16.30;99.90;;;;;;5011449;28;20454;-67
2021/06/09 05:14:48;;;;;;;59.43;5.13;;;16.40;99.90;;;;;;4997968;28;20529;-67
2021/06/09 05:17:19;;;;;;;59.27;4.97;;;16.40;99.90;;;;;;5006725;28;20474;-67
2021/06/09 05:19:48;;;;;;;59.37;4.17;;;16.40;99.90;;;;;;5011681;28;21015;-67
2021/06/09 05:22:20;;;;;;;57.97;3.10;;;16.50;99.90;;;;;;5011278;28;20458;-67
2021/06/09 05:24:47;;;;;;;58.50;3.83;;;16.60;99.90;;;;;;5011137;28;20566;-68
2021/06/09 05:27:19;;;;;;;59.20;4.93;;;16.70;99.90;;;;;;5011335;28;20534;-68
2021/06/09 05:29:47;;;;;;;58.50;3.53;;;16.80;99.90;;;;;;5010703;28;20831;-68
2021/06/09 05:32:14;;;;;;;58.67;3.53;;;16.90;99.90;;;;;;5011045;28;20507;-68
2021/06/09 05:34:42;;;;;;;59.17;3.73;;;17.10;99.90;;;;;;5011106;28;20539;-68
2021/06/09 05:37:11;;;;;;;59.47;4.57;;;17.20;99.90;;;;;;5011205;28;20512;-68
2021/06/09 05:39:39;;;;;;;60.10;4.93;;;17.30;99.90;;;;;;5010304;28;20544;-68
2021/06/09 05:42:09;;;;;;;58.20;3.43;;;17.40;99.90;;;;;;5010521;28;20536;-68
2021/06/09 05:44:36;;;;;;;60.17;4.53;;;17.50;99.70;;;;;;5010105;28;20495;-68
2021/06/09 05:47:04;;;;;;;59.20;4.60;;;17.70;98.60;;;;;;5010622;28;20869;-68
2021/06/09 05:49:30;;;;;;;59.00;4.07;;;17.80;97.70;;;;;;5010764;28;20470;-68
2021/06/09 05:51:57;;;;;;;59.80;3.90;;;17.90;96.00;;;;;;5011450;28;20540;-68
2021/06/09 05:54:24;;;;;;;58.10;3.23;;;17.90;94.00;;;;;;5010977;28;20478;-68
2021/06/09 05:56:51;;;;;;;58.20;3.73;;;18.00;92.80;;;;;;5009923;28;20837;-68
2021/06/09 05:59:18;;;;;;;60.60;4.93;;;18.10;91.90;;;;;;5010468;28;20477;-68
2021/06/09 06:01:45;;;;;;;61.90;7.33;;;18.20;90.80;;;;;;5012874;28;20537;-68
2021/06/09 06:04:14;;;;;;;60.47;4.23;;;18.30;87.90;;;;;;5014905;28;20546;-68
2021/06/09 06:06:41;;;;;;;59.60;4.70;;;18.30;83.30;;;;;;5013778;28;20837;-68
2021/06/09 06:09:08;;;;;;;59.60;4.33;;;18.40;81.40;;;;;;5014115;28;21062;-68
2021/06/09 06:11:35;;;;;;;59.33;4.43;;;18.50;79.30;;;;;;5014852;28;20482;-68
2021/06/09 06:14:06;;;;;;;59.90;5.10;;;18.60;76.90;;;;;;5014241;28;20449;-68
2021/06/09 06:16:32;;;;;;;58.47;3.03;;;18.70;71.40;;;;;;5013015;28;20569;-68
2021/06/09 06:18:59;;;;;;;60.20;4.83;;;18.80;69.30;;;;;;5002141;28;20493;-68
2021/06/09 06:21:27;;;;;;;61.27;5.63;;;18.90;66.90;;;;;;4993771;28;20537;-68
2021/06/09 06:23:55;;;;;;;59.90;4.67;;;19.00;61.20;;;;;;4994362;28;20628;-68
2021/06/09 06:26:22;;;;;;;58.97;4.30;;;19.10;48.70;;;;;;4994061;28;20479;-68
2021/06/09 06:28:52;;;;;;;59.27;5.07;;;19.20;41.80;;;;;;4994515;28;20562;-68
2021/06/09 06:31:20;;;;;;;59.30;4.87;;;19.30;35.70;;;;;;4994275;28;20454;-68
2021/06/09 06:33:48;;;;;;;59.97;4.60;;;19.30;32.10;;;;;;5010066;28;20537;-67
2021/06/09 06:36:17;;;;;;;64.63;6.63;;;19.40;29.00;;;;;;5013341;28;20463;-68
2021/06/09 06:38:45;;;;;;;59.90;4.70;;;19.50;18.40;;;;;;5013827;28;20479;-67
2021/06/09 06:41:12;;;;;;;59.63;4.40;;;19.50;11.70;;;;;;5013133;28;20968;-68
2021/06/09 06:43:41;;;;;;;60.30;4.77;;;19.60;6.60;;;;;;5012440;28;21038;-68
2021/06/09 06:46:12;;;;;;;59.97;4.17;;;19.70;1.00;;;;;;5013692;28;20461;-68
2021/06/09 06:48:39;;;;;;;60.20;4.80;;;19.80;1.00;;;;;;5013404;28;20506;-68
2021/06/09 06:51:06;;;;;;;60.20;4.90;;;19.80;1.00;;;;;;5013544;28;20534;-68
2021/06/09 06:53:32;;;;;;;60.50;4.97;;;19.90;1.00;;;;;;5013482;28;20532;-68
2021/06/09 06:56:01;;;;;;;59.97;4.87;;;20.00;1.00;;;;;;5013620;28;20812;-68
2021/06/09 06:58:31;;;;;;;59.00;4.83;;;20.00;1.00;;;;;;5013060;28;20982;-68
2021/06/09 07:00:58;;;;;;;59.17;4.70;;;20.00;1.00;;;;;;5013267;28;20547;-68
2021/06/09 07:03:25;;;;;;;59.90;4.10;;;20.00;1.00;;;;;;5013843;28;20536;-68
2021/06/09 07:05:52;;;;;;;61.77;4.93;;;20.10;1.00;;;;;;5014034;28;20486;-68
2021/06/09 07:08:18;;;;;;;60.37;5.70;;;20.10;1.00;;;;;;5013549;28;20503;-68
2021/06/09 07:10:45;;;;;;;61.00;5.80;;;20.20;1.00;;;;;;5013383;28;20535;-68
2021/06/09 07:13:15;;;;;;;59.90;3.40;;;20.20;1.00;;;;;;5012214;28;20534;-68
2021/06/09 07:15:42;;;;;;;60.47;4.60;;;20.30;1.00;;;;;;5013234;28;20498;-68
2021/06/09 07:18:09;;;;;;;60.40;4.90;;;20.50;1.00;;;;;;5013589;28;20468;-68
2021/06/09 07:20:36;;;;;;;61.70;5.13;;;20.70;1.00;;;;;;5013515;28;20446;-68
2021/06/09 07:23:03;;;;;;;62.20;5.90;;;20.90;1.00;;;;;;5013645;28;20479;-67
2021/06/09 07:25:31;;;;;;;63.00;7.03;;;21.00;1.00;;;;;;5013401;28;20541;-67
2021/06/09 07:27:59;;;;;;;60.77;6.77;;;21.10;1.00;;;;;;5013593;28;20558;-68
2021/06/09 07:30:28;;;;;;;62.07;6.40;;;21.20;1.00;;;;;;5013307;28;20543;-68
2021/06/09 07:32:55;;;;;;;59.67;4.30;;;21.20;1.00;;;;;;5013699;28;20825;-68
2021/06/09 07:35:21;;;;;;;59.27;4.40;;;21.10;1.00;;;;;;5011643;28;20459;-68
2021/06/09 07:37:50;;;;;;;59.67;4.77;;;21.20;1.00;;;;;;5013179;28;20468;-68
2021/06/09 07:40:21;;;;;;;59.97;5.50;;;21.20;1.00;;;;;;5013303;28;20787;-67
2021/06/09 07:42:50;;;;;;;59.57;4.33;;;21.20;1.00;;;;;;5013163;28;20527;-67
2021/06/09 07:45:18;;;;;;;60.50;4.87;;;21.20;1.00;;;;;;5032298;28;20491;-68
2021/06/09 07:47:48;;;;;;;62.37;4.73;;;21.10;1.00;;;;;;5032817;28;20563;-68
2021/06/09 07:50:23;;;;;;;59.17;4.57;;;21.00;1.00;;;;;;5032817;28;20451;-68
2021/06/09 07:52:50;;;;;;;60.70;5.23;;;20.90;1.00;;;;;;5033031;28;20546;-68
2021/06/09 07:55:17;;;;;;;61.20;4.97;;;20.90;1.00;;;;;;5032579;28;20443;-68
2021/06/09 07:57:45;;;;;;;61.17;5.60;;;21.00;1.00;;;;;;5032180;28;21054;-68
2021/06/09 08:00:13;;;;;;;59.60;4.03;;;21.10;1.00;;;;;;5020299;28;20506;-68
2021/06/09 08:02:41;;;;;;;60.07;5.37;;;21.30;1.00;;;;;;4998464;28;20545;-68
2021/06/09 08:05:10;;;;;;;60.77;4.40;;;21.50;1.00;;;;;;4992430;28;21136;-67
2021/06/09 08:07:38;;;;;;;59.37;4.10;;;21.70;1.00;;;;;;4993132;28;20546;-67
2021/06/09 08:10:07;;;;;;;60.13;4.70;;;21.80;1.00;;;;;;4993459;28;20458;-67
2021/06/09 08:12:34;;;;;;;61.07;5.00;;;22.00;1.00;;;;;;4993488;28;20532;-67
2021/06/09 08:15:01;;;;;;;59.87;4.47;;;22.10;1.00;;;;;;4993072;28;20451;-67
2021/06/09 08:17:27;;;;;;;60.03;5.20;;;22.30;1.00;;;;;;4992851;28;20451;-68
2021/06/09 08:19:54;;;;;;;60.20;5.70;;;22.60;1.00;;;;;;4993106;28;20446;-67
2021/06/09 08:22:22;;;;;;;61.10;4.80;;;22.80;1.00;;;;;;4992571;28;20493;-68
2021/06/09 08:24:48;;;;;;;58.40;3.57;;;23.00;1.00;;;;;;4993082;28;20918;-67
2021/06/09 08:27:15;;;;;;;60.90;4.27;;;23.20;1.00;;;;;;4992708;28;20451;-68
2021/06/09 08:29:41;;;;;;;58.57;3.63;;;23.30;1.00;;;;;;4992670;28;20540;-67
2021/06/09 08:32:08;;;;;;;58.13;3.40;;;23.50;1.00;;;;;;5010017;28;20563;-67
2021/06/09 08:34:35;;;;;;;62.20;4.90;;;23.60;1.00;;;;;;5012363;28;20492;-66
2021/06/09 08:37:04;;;;;;;59.97;5.00;;;23.60;1.00;;;;;;5011768;28;20535;-67
2021/06/09 08:39:31;;;;;;;60.03;5.37;;;23.60;1.00;;;;;;5012390;28;20549;-67
2021/06/09 08:42:01;;;;;;;60.17;3.83;;;23.60;1.00;;;;;;5012190;28;20464;-66
2021/06/09 08:44:28;;;;;;;60.80;5.33;;;23.60;1.00;;;;;;5012200;28;20564;-66
2021/06/09 08:46:57;;;;;;;58.87;3.70;;;23.60;1.00;;;;;;5012111;28;20532;-66
2021/06/09 08:49:25;;;;;;;58.57;3.80;;;23.60;1.00;;;;;;5011974;28;20892;-66
2021/06/09 08:51:53;;;;;;;61.20;5.37;;;23.70;1.00;;;;;;5012378;28;20451;-66
2021/06/09 08:54:19;;;;;;;58.90;4.13;;;23.80;1.00;;;;;;5012264;28;20549;-69
2021/06/09 08:56:50;;;;;;;59.07;3.57;;;24.00;1.00;;;;;;5011685;28;21025;-68
2021/06/09 08:59:16;;;;;;;60.97;4.33;;;24.00;1.00;;;;;;5012044;28;20482;-68
2021/06/09 09:01:43;;;;;;;61.77;3.50;;;24.10;1.00;;;;;;5010687;28;20456;-68
2021/06/09 09:04:12;;;;;;;59.10;3.80;;;24.20;1.00;;;;;;5011625;28;20997;-68
2021/06/09 09:06:39;;;;;;;60.10;4.73;;;24.20;1.00;;;;;;5012006;28;20473;-68
2021/06/09 09:09:06;;;;;;;59.60;4.10;;;24.20;1.00;;;;;;5011992;28;20596;-66
2021/06/09 09:11:33;;;;;;;60.63;4.60;;;24.30;1.00;;;;;;5011997;28;20458;-67
2021/06/09 09:14:00;;;;;;;59.53;4.07;;;24.30;1.00;;;;;;5011836;28;20545;-69
2021/06/09 09:16:27;;;;;;;59.20;4.50;;;24.30;1.00;;;;;;5011407;28;20553;-66
2021/06/09 09:18:59;;;;;;;58.50;4.20;;;24.30;1.00;;;;;;5011979;28;20906;-66
2021/06/09 09:21:39;;;;;;;59.80;4.50;;;24.30;1.00;;;;;;5012056;28;20454;-67
2021/06/09 09:24:09;;;;;;;59.47;4.20;;;24.40;1.00;;;;;;5011826;28;20457;-67
2021/06/09 09:26:36;;;;;;;60.23;4.57;;;24.70;1.00;;;;;;5011625;28;20551;-68
2021/06/09 09:29:13;;;;;;;58.67;4.17;;;24.80;1.00;;;;;;5011354;28;20493;-68
2021/06/09 09:31:52;;;;;;;59.20;4.47;;;24.80;1.00;;;;;;5011455;28;20497;-67
2021/06/09 09:34:44;;;;;;;59.87;4.30;;;24.90;1.00;;;;;;4995812;28;20457;-67
2021/06/09 09:37:18;;;;;;;59.57;3.73;;;24.90;1.00;;;;;;5009880;28;20462;-68
2021/06/09 09:39:47;;;;;;;61.27;4.57;;;25.10;1.00;;;;;;5015415;28;20535;-67
2021/06/09 09:42:22;;;;;;;58.87;3.30;;;25.20;1.00;;;;;;5015403;28;20481;-67
2021/06/09 09:44:50;;;;;;;58.70;3.60;;;25.30;1.00;;;;;;5015296;28;20551;-67
2021/06/09 09:47:18;;;;;;;58.80;3.47;;;25.30;1.00;;;;;;5015212;28;20545;-68
2021/06/09 09:49:44;;;;;;;59.03;4.00;;;25.40;1.00;;;;;;5015231;28;20450;-67
2021/06/09 09:52:11;;;;;;;59.37;3.93;;;25.50;1.00;;;;;;5015700;28;20534;-67
2021/06/09 09:54:40;;;;;;;60.30;3.83;;;25.50;1.00;;;;;;5015466;28;20446;-67
2021/06/09 09:57:09;;;;;;;58.77;3.73;;;25.60;1.00;;;;;;5014950;28;20458;-67
2021/06/09 09:59:36;;;;;;;58.73;3.43;;;25.70;1.00;;;;;;5014979;28;20551;-67
2021/06/09 10:02:12;;;;;;;59.63;3.30;;;26.00;1.00;;;;;;5015386;28;20452;-67
2021/06/09 10:04:39;;;;;;;58.17;3.60;;;26.10;1.00;;;;;;5013851;28;20481;-67
2021/06/09 10:07:07;;;;;;;58.87;3.13;;;26.10;1.00;;;;;;5014780;28;20526;-67
2021/06/09 10:09:38;;;;;;;59.13;4.00;;;26.10;1.00;;;;;;5014845;28;20478;-68
2021/06/09 10:12:06;;;;;;;58.80;4.67;;;26.20;1.00;;;;;;5015097;28;20456;-67
2021/06/09 10:14:37;;;;;;;60.27;5.30;;;26.60;1.00;;;;;;5014924;28;20480;-68
2021/06/09 10:17:07;;;;;;;58.77;3.80;;;26.80;1.00;;;;;;5014314;28;20956;-67
2021/06/09 10:19:35;;;;;;;58.47;3.63;;;27.00;1.00;;;;;;5014891;28;20915;-68
2021/06/09 10:22:05;;;;;;;60.37;3.23;;;27.50;1.00;;;;;;5015132;28;20524;-67
2021/06/09 10:24:41;;;;;;;59.03;4.47;;;28.10;1.00;;;;;;5014643;28;20482;-68
2021/06/09 10:27:08;;;;;;;60.60;4.10;;;29.10;1.00;;;;;;5014410;28;20544;-68
2021/06/09 10:29:36;;;;;;;59.00;3.90;;;30.20;1.00;;;;;;5014655;28;20929;-68
2021/06/09 10:32:06;;;;;;;59.80;4.10;;;31.00;1.00;;;;;;5014597;28;20454;-68
2021/06/09 10:34:34;;;;;;;58.30;3.30;;;31.60;1.00;;;;;;5007032;28;20883;-68
2021/06/09 10:37:03;;;;;;;58.70;3.83;;;31.80;1.00;;;;;;5003746;28;20564;-68
2021/06/09 10:39:31;;;;;;;58.40;3.03;;;31.90;1.00;;;;;;5014312;28;20531;-68
2021/06/09 10:42:00;;;;;;;59.17;4.10;;;32.20;1.00;;;;;;5014134;28;20496;-67
2021/06/09 10:44:34;;;;;;;59.20;3.77;;;31.90;1.00;;;;;;5014558;28;20481;-67
2021/06/09 10:47:02;;;;;;;59.07;3.50;;;32.00;1.00;;;;;;5013367;28;20536;-67
2021/06/09 10:49:33;;;;;;;58.57;3.10;;;32.70;1.00;;;;;;5014198;28;20942;-67
2021/06/09 10:52:00;;;;;;;58.07;3.47;;;32.60;1.00;;;;;;5014233;28;20851;-67
2021/06/09 10:54:27;;;;;;;58.27;3.20;;;31.70;1.00;;;;;;5014400;28;20536;-67
2021/06/09 10:56:56;;;;;;;59.07;4.17;;;30.80;1.00;;;;;;5014026;28;20488;-67
2021/06/09 10:59:24;;;;;;;59.80;3.03;;;29.90;1.00;;;;;;5014004;28;20479;-67
2021/06/09 11:01:56;;;;;;;59.40;3.17;;;29.40;1.00;;;;;;5014055;28;20488;-67
2021/06/09 11:04:24;;;;;;;58.50;3.23;;;29.40;1.00;;;;;;5013762;28;20573;-67
2021/06/09 11:06:53;;;;;;;57.97;2.60;;;29.60;1.00;;;;;;5012273;28;20456;-68
2021/06/09 11:09:23;;;;;;;59.40;3.97;;;30.80;1.00;;;;;;5013873;28;20484;-67
2021/06/09 11:12:18;;;;;;;58.83;3.50;;;32.20;1.00;;;;;;5014026;28;20535;-67
2021/06/09 11:14:47;;;;;;;58.33;3.17;;;33.70;1.00;;;;;;5013842;28;20533;-67
2021/06/09 11:17:14;;;;;;;58.30;3.70;;;34.70;1.00;;;;;;5013120;28;20537;-68
2021/06/09 11:19:45;;;;;;;58.37;3.27;;;35.70;1.00;;;;;;5013749;28;20464;-68
2021/06/09 11:22:24;;;;;;;58.60;3.30;;;36.30;1.00;;;;;;5013781;28;20484;-67
2021/06/09 11:25:14;;;;;;;58.20;3.47;;;37.20;1.00;;;;;;5013573;28;20898;-67
2021/06/09 11:28:00;;;;;;;58.70;3.50;;;38.00;1.00;;;;;;5013063;28;21005;-67
2021/06/09 11:30:51;;;;;;;59.10;4.30;;;38.90;1.00;;;;;;5013588;28;20454;-66
2021/06/09 11:33:37;;;;;;;59.90;4.67;;;38.90;1.00;;;;;;5013854;28;20871;-67
2021/06/09 11:36:05;;;;;;;57.53;3.33;;;38.50;1.00;;;;;;5012532;28;22044;-67
2021/06/09 11:38:38;;;;;;;58.20;3.83;;;38.20;1.00;;;;;;5013137;28;20549;-67
2021/06/09 11:41:07;;;;;;;57.73;3.30;;;38.30;1.00;;;;;;5013521;28;20512;-67
2021/06/09 11:43:39;;;;;;;57.37;2.50;;;38.50;1.00;;;;;;5013202;28;20497;-67
2021/06/09 11:46:07;;;;;;;57.90;3.10;;;38.70;1.00;;;;;;5013066;28;20901;-68
2021/06/09 11:48:36;;;;;;;57.40;2.97;;;38.20;1.00;;;;;;5012938;28;20554;-68
2021/06/09 11:51:26;;;;;;;57.77;2.90;;;38.00;1.00;;;;;;5013312;28;20453;-68
2021/06/09 11:53:56;;;;;;;57.63;2.93;;;37.20;1.00;;;;;;5013237;28;20545;-67
2021/06/09 11:56:26;;;;;;;58.37;3.27;;;36.20;1.00;;;;;;5014054;28;20799;-66
2021/06/09 11:58:54;;;;;;;57.70;2.40;;;35.20;1.00;;;;;;5032315;28;20530;-66
2021/06/09 12:01:23;;;;;;;58.70;3.93;;;34.40;1.00;;;;;;5032615;28;20514;-67
2021/06/09 12:04:08;;;;;;;57.90;2.47;;;34.00;1.00;;;;;;5032683;28;20553;-66
2021/06/09 12:06:41;;;;;;;58.03;3.03;;;33.80;1.00;;;;;;5032369;28;20545;-66
2021/06/09 12:09:08;;;;;;;58.67;3.83;;;33.80;1.00;;;;;;5032515;28;20473;-66
2021/06/09 12:11:40;;;;;;;57.87;2.53;;;34.00;1.00;;;;;;5032383;28;20445;-66
2021/06/09 12:14:24;;;;;;;58.30;3.00;;;34.50;1.00;;;;;;5032785;28;20447;-66
2021/06/09 12:16:53;;;;;;;57.90;2.93;;;34.60;1.00;;;;;;5032410;28;20536;-67
2021/06/09 12:19:26;;;;;;;58.03;2.97;;;34.50;1.00;;;;;;5032160;28;20523;-67
2021/06/09 12:21:58;;;;;;;58.27;2.90;;;34.40;1.00;;;;;;5032193;28;20525;-67
2021/06/09 12:24:26;;;;;;;58.40;3.07;;;34.10;1.00;;;;;;5032472;28;20532;-68
2021/06/09 12:26:55;;;;;;;58.37;3.77;;;33.90;1.00;;;;;;5032048;28;20475;-68
2021/06/09 12:29:28;;;;;;;58.57;3.27;;;33.60;1.00;;;;;;5032341;28;20480;-67
2021/06/09 12:31:56;;;;;;;58.17;2.57;;;33.40;1.00;;;;;;5032210;28;20548;-68
2021/06/09 12:34:28;;;;;;;57.87;2.47;;;33.20;1.00;;;;;;5032135;28;20598;-67
2021/06/09 12:36:58;;;;;;;58.87;3.50;;;34.00;1.00;;;;;;5032133;28;20492;-67
2021/06/09 12:39:26;;;;;;;58.07;3.40;;;34.20;1.00;;;;;;5031958;28;20465;-65
2021/06/09 12:41:53;;;;;;;57.90;2.93;;;34.60;1.00;;;;;;5032047;28;20445;-66
2021/06/09 12:44:20;;;;;;;58.13;2.93;;;35.60;1.00;;;;;;5032010;28;20528;-66
2021/06/09 12:46:51;;;;;;;57.47;2.67;;;35.60;1.00;;;;;;5031683;28;20488;-67
2021/06/09 12:49:23;;;;;;;58.70;3.37;;;36.20;1.00;;;;;;5031879;28;20481;-67
2021/06/09 12:52:04;;;;;;;57.73;2.80;;;37.10;1.00;;;;;;5031756;28;20991;-66